Eagle Bay, New York
Current Conditions -  °F | °C
As of 2:53 PM on Thursday 29 Jan 2015 (Local Time) from KRME Reporting Station
Overcast Overcast  
Wind Chill: 16°   Ceiling: 7500
Heat Index: 27°   Visibility: 10mi
Dew Point:   Wind: 13mph
Humidity: 43%   Direction: 140°SE
Pressure: 29.98"   Gusts: NA
Location:  43.7°N, 74.99°W
Report Text: KRME 291953Z 14011KT 10SM OVC075 M03/M14 A2998 RMK AO2 SLP162 T10281139
Loading
Personal Weather Stations






























Interactive Weather Map New forecast layout! Learn more

10-Day Weather Forecast

Advertisements
Track Severe Weather on mobile